Flight Track Log - Related Links

Times and Time Zones

All times are in EDT time to prevent confusion due to time zone crossing. See the GJS3710 flight status page for this flight to view local times or setup timezone preferences in your user account.

Time Position Orientation Groundspeed Altitude Reporting Facility
EDT Latitude Longitude Course Direction KTS MPH feet Rate Location/Type
14:51 29.5200 -98.4569 129° Southeast 155 178 1,600  Level Houston Center
14:52 29.4983 -98.4261 129° Southeast 181 208 2,800 1,965 Climbing Houston Center
14:53 29.4650 -98.3583 119° Southeast 227 261 5,300 2,297 Climbing Houston Center
14:54 29.5236 -98.3150 33° Northeast 288 331 7,700 2,661 Climbing Houston Center
14:55 29.6133 -98.3258 354° North 282 325 10,800 2,047 Climbing Houston Center
14:56 29.7011 -98.3369 354° North 325 374 12,100 1,500 Climbing Houston Center
14:57 29.8072 -98.3508 354° North 356 410 13,900 1,645 Climbing Houston Center
14:58 29.9072 -98.3797 346° North 369 425 15,500 1,839 Climbing Houston Center
14:59 30.0092 -98.4358 335° Northwest 397 457 17,700 1,790 Climbing Houston Center
15:00 30.1047 -98.4911 333° Northwest 365 420 19,200 1,548 Climbing Houston Center
15:01 30.2025 -98.5447 335° Northwest 386 444 20,900 1,776 Climbing Houston Center
15:02 30.3044 -98.6028 334° Northwest 390 449 22,900 1,776 Climbing Houston Center
15:03 30.4042 -98.6589 334° Northwest 393 452 24,600 1,597 Climbing Houston Center
15:04 30.5042 -98.7153 334° Northwest 395 455 26,200 1,500 Climbing Houston Center
15:05 30.6044 -98.7728 334° Northwest 397 457 27,700 1,306 Climbing Houston Center
15:06 30.7044 -98.8300 334° Northwest 397 457 28,900 1,113 Climbing Houston Center
15:07 30.8061 -98.8883 334° Northwest 400 460 30,000 823 Climbing Houston Center
15:08 30.9269 -98.9575 334° Northwest 408 470 30,600 624 Climbing Houston Center
15:09 31.0350 -99.0178 334° Northwest 421 484 31,300 768 Climbing Houston Center
15:10 31.1414 -99.0803 333° Northwest 423 487 32,200 919 Climbing Houston Center
15:11 31.2489 -99.1408 334° Northwest 424 488 33,200 968 Climbing Houston Center
15:12 31.3542 -99.2017 334° Northwest 418 481 34,200 918 Climbing Houston Center
15:13 31.3944 -99.2264 332° Northwest 417 480 34,500 571 Climbing Fort Worth Center
15:14 31.5039 -99.2919 333° Northwest 404 465 35,000 250 Climbing Fort Worth Center
15:15 31.6117 -99.3528 334° Northwest 404 465 35,000  Level Fort Worth Center
15:16 31.7214 -99.4161 334° Northwest 420 483 35,000  Level Fort Worth Center
15:17 31.8289 -99.4769 334° Northwest 427 491 35,000  Level Fort Worth Center
15:18 31.9342 -99.5406 333° Northwest 427 491 35,000  Level Fort Worth Center
15:19 32.0439 -99.6069 333° Northwest 427 491 35,000  Level Fort Worth Center
15:20 32.1533 -99.6708 334° Northwest 427 491 35,000  Level Fort Worth Center
15:21 32.2608 -99.7325 334° Northwest 427 491 35,000  Level Fort Worth Center
15:22 32.3703 -99.7969 334° Northwest 427 491 35,000  Level Fort Worth Center
15:23 32.4694 -99.8486 336° Northwest 427 491 35,000  Level Fort Worth Center
15:24 32.5789 -99.9108 334° Northwest 427 491 35,000  Level Fort Worth Center
15:25 32.6967 -99.9708 337° Northwest 435 501 35,000 248 Level Fort Worth Center
15:26 32.8100 -100.0333 335° Northwest 441 507 35,500 500 Climbing Fort Worth Center
15:27 32.9175 -100.0911 336° Northwest 435 501 36,000 252 Climbing Fort Worth Center
15:28 33.0308 -100.1539 335° Northwest 435 501 36,000  Level Fort Worth Center
15:29 33.1506 -100.2197 335° Northwest 441 507 36,000  Level Fort Worth Center
15:30 33.2619 -100.2803 336° Northwest 441 507 36,000  Level Fort Worth Center
15:31 33.3731 -100.3436 335° Northwest 441 507 36,000  Level Fort Worth Center
15:32 33.4844 -100.4047 335° Northwest 441 507 36,000  Level Fort Worth Center
15:33 33.5975 -100.4683 335° Northwest 441 507 36,000  Level Fort Worth Center
15:34 33.7086 -100.5319 335° Northwest 441 507 36,000  Level Fort Worth Center
15:35 33.8219 -100.5936 336° Northwest 441 507 36,000  Level Fort Worth Center
15:36 33.9331 -100.6578 334° Northwest 441 507 36,000  Level Fort Worth Center
15:37 34.0461 -100.7197 336° Northwest 441 507 36,000  Level Fort Worth Center
15:39 34.2456 -100.8311 335° Northwest 448 516 36,000  Level Albuquerque Center
15:40 34.3578 -100.8947 335° Northwest 448 516 36,000  Level Albuquerque Center
15:41 34.4703 -100.9589 335° Northwest 447 514 36,000  Level Albuquerque Center
15:42 34.5828 -101.0231 335° Northwest 447 514 36,000  Level Albuquerque Center
15:43 34.7181 -101.1014 335° Northwest 449 517 36,000  Level Albuquerque Center
15:44 34.8292 -101.1675 334° Northwest 446 513 36,000  Level Albuquerque Center
15:45 34.9422 -101.2317 335° Northwest 449 517 36,000  Level Albuquerque Center
15:46 35.0544 -101.2964 335° Northwest 449 517 36,000  Level Albuquerque Center
15:47 35.1761 -101.3672 335° Northwest 453 521 36,000  Level Albuquerque Center
15:48 35.2917 -101.4342 335° Northwest 455 524 36,000  Level Albuquerque Center
15:49 35.4053 -101.5003 335° Northwest 452 520 36,000  Level Albuquerque Center
15:50 35.5228 -101.5697 334° Northwest 448 516 36,000  Level Albuquerque Center
15:51 35.6325 -101.6358 334° Northwest 444 511 36,000  Level Albuquerque Center
15:52 35.7439 -101.7008 335° Northwest 445 512 36,000  Level Albuquerque Center
15:53 35.8550 -101.7675 334° Northwest 445 512 36,000  Level Albuquerque Center
15:54 35.9886 -101.8475 334° Northwest 445 512 36,000  Level Albuquerque Center
15:55 36.1003 -101.9139 334° Northwest 445 512 36,000  Level Albuquerque Center
15:56 36.2114 -101.9797 334° Northwest 443 510 36,000  Level Albuquerque Center
15:57 36.3231 -102.0458 335° Northwest 445 512 36,000  Level Albuquerque Center
15:58 36.4339 -102.1131 334° Northwest 444 511 36,000  Level Albuquerque Center
15:59 36.5444 -102.1803 334° Northwest 443 510 36,000  Level Albuquerque Center
16:00 36.6544 -102.2464 334° Northwest 440 506 36,000  Level Albuquerque Center
16:01 36.7856 -102.3267 334° Northwest 440 506 36,000  Level Albuquerque Center
16:02 36.8983 -102.3969 334° Northwest 440 506 36,000  Level Albuquerque Center
16:03 37.0042 -102.4611 334° Northwest 441 507 36,000  Level Albuquerque Center
16:04 37.1142 -102.5286 334° Northwest 438 504 36,000  Level Albuquerque Center
16:05 37.2367 -102.6044 334° Northwest 439 505 36,000  Level Albuquerque Center
16:06 37.3408 -102.6686 334° Northwest 438 504 36,000  Level Albuquerque Center
16:07 37.4622 -102.7428 334° Northwest 437 503 36,000  Level Denver Center
16:09 37.5719 -102.7953 339° North 445 512 36,000 -387 Level Denver Center
16:10 37.7061 -102.8386 346° North 448 516 35,200 -823 Descending Denver Center
16:11 37.8219 -102.8750 346° North 449 517 34,300 -1,024 Descending Denver Center
16:12 37.9564 -102.9189 346° North 449 517 33,100 -1,024 Descending Denver Center
16:13 38.0561 -102.9942 329° Northwest 442 509 32,200 -532 Descending Denver Center
16:14 38.1689 -103.0981 324° Northwest 447 514 32,000 -98 Descending Denver Center
16:15 38.2656 -103.1875 324° Northwest 447 514 32,000  Level Denver Center
16:16 38.3800 -103.2931 324° Northwest 454 522 32,000 -49 Level Denver Center
16:17 38.4775 -103.3828 324° Northwest 452 520 31,900 -1,122 Descending Denver Center
16:18 38.5867 -103.4861 324° Northwest 441 507 29,700 -1,935 Descending Denver Center
16:19 38.6775 -103.5706 324° Northwest 426 490 27,900 -1,756 Descending Denver Center
16:20 38.7667 -103.6550 324° Northwest 418 481 26,100 -1,854 Descending Denver Center
16:21 38.8622 -103.7456 324° Northwest 403 464 24,100 -1,790 Descending Denver Center
16:22 38.9511 -103.8283 324° Northwest 393 452 22,400 -1,561 Descending Denver Center
16:23 39.0356 -103.9081 324° Northwest 374 430 20,900 -1,366 Descending Denver Center
16:24 39.1169 -103.9850 324° Northwest 363 418 19,600 -1,220 Descending Denver Center
16:25 39.2003 -104.0650 323° Northwest 325 374 18,400 -1,073 Descending Denver Center
16:26 39.2642 -104.1328 321° Northwest 316 364 17,400 -968 Descending Denver Center
16:27 39.2842 -104.2294 285° West 270 311 16,400 -1,024 Descending Denver Center
16:28 39.3053 -104.3200 287° West 244 281 15,300 -1,024 Descending Denver Center
16:29 39.3442 -104.3981 303° West 266 306 14,300 -976 Descending Denver Center
16:30 39.3925 -104.4681 312° West 264 304 13,300 -1,024 Descending Denver Center
16:31 39.4556 -104.5189 328° Northwest 252 290 12,200 -1,065 Descending Denver Center
16:32 39.5208 -104.5503 340° North 250 288 11,100 -1,220 Descending Denver Center
16:33 39.5908 -104.5842 340° North 251 289 9,700 -1,366 Descending Denver Center
16:34 39.6550 -104.6156 339° North 248 285 8,300 -1,113 Descending Denver Center
16:35 39.7114 -104.6439 339° North 221 254 7,400 -780 Descending Denver Center
16:36 39.7664 -104.6608 347° North 188 216 6,700 -732 Descending Denver Center
16:37 39.8094 -104.6611 360° North 156 180 5,900 -634 Descending Denver Center
16:38 39.8442 -104.6594 North 125 144 5,400 -492 Descending Denver Center
16:40 39.8500 -104.6667 North  Level FlightAware Approximate
16:47 39.8617 -104.6732 North  Level Estimated
16:48 39.8617 -104.6732 North  Level Estimated

Login

Don't have an account? Register now (free) for customized features, flight alerts, and more!